Time;durP1;ratioP1;P1;durP2;ratioP2;P2;SDS_P1;SDS_P2;PMS_P1;PMS_P2;Temp;Humidity;BMP_temperature;BMP_pressure;BME280_temperature;BME280_humidity;BME280_pressure;Samples;Min_cycle;Max_cycle;Signal;HPM_P1;HPM_P2
2022/12/18 00:01:24;;;;;;;;;;;;;;;;;;5111110;28;1063;-41
2022/12/18 00:03:53;;;;;;;;;;;;;;;;;;5110768;28;1106;-41
2022/12/18 00:06:21;;;;;;;;;;;;;;;;;;5111078;28;1099;-42
2022/12/18 00:08:48;;;;;;;;;;;;;;;;;;5109295;28;1225;-44
2022/12/18 00:11:17;;;;;;;;;;;;;;;;;;5110100;28;936;-42
2022/12/18 00:13:44;;;;;;;;;;;;;;;;;;5111051;28;1287;-42
2022/12/18 00:16:12;;;;;;;;;;;;;;;;;;5110887;28;1927;-43
2022/12/18 00:18:40;;;;;;;;;;;;;;;;;;5110714;28;1160;-43
2022/12/18 00:21:08;;;;;;;;;;;;;;;;;;5110782;28;1001;-44
2022/12/18 00:23:36;;;;;;;;;;;;;;;;;;5110690;28;1113;-42
2022/12/18 00:26:07;;;;;;;;;;;;;;;;;;5110686;28;1067;-42
2022/12/18 00:28:35;;;;;;;;;;;;;;;;;;5111059;28;1470;-44
2022/12/18 00:31:03;;;;;;;;;;;;;;;;;;5110711;28;1121;-42
2022/12/18 00:33:30;;;;;;;;;;;;;;;;;;5110643;28;1248;-41
2022/12/18 00:36:01;;;;;;;;;;;;;;;;;;5110354;28;1917;-41
2022/12/18 00:38:28;;;;;;;;;;;;;;;;;;5110816;28;1307;-42
2022/12/18 00:40:55;;;;;;;;;;;;;;;;;;5110801;28;1063;-44
2022/12/18 00:43:23;;;;;;;;;;;;;;;;;;5110414;28;1044;-43
2022/12/18 00:45:51;;;;;;;;;;;;;;;;;;5110329;28;1082;-44
2022/12/18 00:48:19;;;;;;;;;;;;;;;;;;5110415;28;1047;-44
2022/12/18 00:50:47;;;;;;;;;;;;;;;;;;5110183;28;1411;-43
2022/12/18 00:53:14;;;;;;;;;;;;;;;;;;5108998;28;1471;-44
2022/12/18 00:55:42;;;;;;;;;;;;;;;;;;5108987;28;1257;-45
2022/12/18 00:58:10;;;;;;;;;;;;;;;;;;5108935;28;1910;-41
2022/12/18 01:00:37;;;;;;;;;;;;;;;;;;5109909;28;1059;-42
2022/12/18 01:03:05;;;;;;;;;;;;;;;;;;5110158;28;1074;-42
2022/12/18 01:05:32;;;;;;;;;;;;;;;;;;5110084;28;1149;-43
2022/12/18 01:07:59;;;;;;;;;;;;;;;;;;5110371;28;1066;-45
2022/12/18 01:10:27;;;;;;;;;;;;;;;;;;5110374;28;1233;-42
2022/12/18 01:12:56;;;;;;;;;;;;;;;;;;5110237;28;1002;-42
2022/12/18 01:15:23;;;;;;;;;;;;;;;;;;5109806;28;1646;-43
2022/12/18 01:17:52;;;;;;;;;;;;;;;;;;5109708;28;1967;-42
2022/12/18 01:20:19;;;;;;;;;;;;;;;;;;5109649;28;1380;-42
2022/12/18 01:22:46;;;;;;;;;;;;;;;;;;5109970;28;1131;-42
2022/12/18 01:25:13;;;;;;;;;;;;;;;;;;5110024;28;997;-44
2022/12/18 01:27:40;;;;;;;;;;;;;;;;;;5109915;28;992;-42
2022/12/18 01:30:07;;;;;;;;;;;;;;;;;;5108447;28;1747;-44
2022/12/18 01:32:34;;;;;;;;;;;;;;;;;;5109833;28;904;-42
2022/12/18 01:35:02;;;;;;;;;;;;;;;;;;5108473;28;1110;-43
2022/12/18 01:37:29;;;;;;;;;;;;;;;;;;5108278;28;1994;-44
2022/12/18 01:39:56;;;;;;;;;;;;;;;;;;5109925;28;926;-42
2022/12/18 01:42:23;;;;;;;;;;;;;;;;;;5109605;28;1072;-41
2022/12/18 01:45:05;;;;;;;;;;;;;;;;;;5109441;28;1409;-43
2022/12/18 01:47:35;;;;;;;;;;;;;;;;;;5109666;28;922;-42
2022/12/18 01:50:06;;;;;;;;;;;;;;;;;;5109642;28;1074;-42
2022/12/18 01:52:33;;;;;;;;;;;;;;;;;;5109343;28;1225;-42
2022/12/18 01:55:01;;;;;;;;;;;;;;;;;;5107987;28;1233;-41
2022/12/18 01:57:28;;;;;;;;;;;;;;;;;;5109850;28;1984;-43
2022/12/18 01:59:58;;;;;;;;;;;;;;;;;;5108234;28;1650;-41
2022/12/18 02:02:27;;;;;;;;;;;;;;;;;;5109687;28;911;-41
2022/12/18 02:04:54;;;;;;;;;;;;;;;;;;5109311;28;1107;-42
2022/12/18 02:07:22;;;;;;;;;;;;;;;;;;5109610;28;1069;-42
2022/12/18 02:09:54;;;;;;;;;;;;;;;;;;5108802;28;1038;-43
2022/12/18 02:12:31;;;;;;;;;;;;;;;;;;5108249;28;1072;-43
2022/12/18 02:15:00;;;;;;;;;;;;;;;;;;5109570;28;1030;-42
2022/12/18 02:17:36;;;;;;;;;;;;;;;;;;5108119;28;1911;-42
2022/12/18 02:20:09;;;;;;;;;;;;;;;;;;5088045;28;1406;-44
2022/12/18 02:22:55;;;;;;;;;;;;;;;;;;5087640;28;1186;-43
2022/12/18 02:25:26;;;;;;;;;;;;;;;;;;5088944;28;909;-44
2022/12/18 02:27:54;;;;;;;;;;;;;;;;;;5088923;28;942;-42
2022/12/18 02:30:21;;;;;;;;;;;;;;;;;;5089007;28;1268;-42
2022/12/18 02:32:50;;;;;;;;;;;;;;;;;;5088881;28;1062;-44
2022/12/18 02:35:23;;;;;;;;;;;;;;;;;;5092160;28;1306;-43
2022/12/18 02:37:54;;;;;;;;;;;;;;;;;;5092645;28;1913;-42
2022/12/18 02:40:23;;;;;;;;;;;;;;;;;;5092409;28;1280;-42
2022/12/18 02:42:53;;;;;;;;;;;;;;;;;;5091084;28;1008;-42
2022/12/18 02:45:21;;;;;;;;;;;;;;;;;;5090400;28;1466;-42
2022/12/18 02:47:49;;;;;;;;;;;;;;;;;;5092083;28;1178;-42
2022/12/18 02:50:22;;;;;;;;;;;;;;;;;;5090788;28;1389;-42
2022/12/18 02:52:54;;;;;;;;;;;;;;;;;;5091006;28;1742;-43
2022/12/18 02:55:21;;;;;;;;;;;;;;;;;;5090610;28;1203;-43
2022/12/18 02:57:55;;;;;;;;;;;;;;;;;;5090488;28;2002;-44
2022/12/18 03:00:31;;;;;;;;;;;;;;;;;;5090703;28;1140;-42
2022/12/18 03:03:34;;;;;;;;;;;;;;;;;;5090854;28;1248;-42
2022/12/18 03:06:04;;;;;;;;;;;;;;;;;;5025610;28;1401;-41
2022/12/18 03:08:35;;;;;;;;;;;;;;;;;;5098089;27;1041;-40
2022/12/18 03:11:04;;;;;;;;;;;;;;;;;;5112138;28;1198;-43
2022/12/18 03:13:38;;;;;;;;;;;;;;;;;;5111945;28;997;-41
2022/12/18 03:16:09;;;;;;;;;;;;;;;;;;5110833;28;1330;-42
2022/12/18 03:18:46;;;;;;;;;;;;;;;;;;5110399;28;2022;-41
2022/12/18 03:21:14;;;;;;;;;;;;;;;;;;5110759;28;1241;-41
2022/12/18 03:23:44;;;;;;;;;;;;;;;;;;5110734;28;1311;-42
2022/12/18 03:26:15;;;;;;;;;;;;;;;;;;5110569;28;1673;-41
2022/12/18 03:28:47;;;;;;;;;;;;;;;;;;5110626;28;1363;-42
2022/12/18 03:31:15;;;;;;;;;;;;;;;;;;5110427;28;1398;-42
2022/12/18 03:33:50;;;;;;;;;;;;;;;;;;5110471;28;1361;-41
2022/12/18 03:36:18;;;;;;;;;;;;;;;;;;5110383;28;1332;-41
2022/12/18 03:38:46;;;;;;;;;;;;;;;;;;5110075;28;1914;-41
2022/12/18 03:41:29;;;;;;;;;;;;;;;;;;5110330;28;1436;-42
2022/12/18 03:44:20;;;;;;;;;;;;;;;;;;5111571;28;1085;-44
2022/12/18 03:47:01;;;;;;;;;;;;;;;;;;5110343;28;1245;-41
2022/12/18 03:49:35;;;;;;;;;;;;;;;;;;5110330;28;1393;-43
2022/12/18 03:52:09;;;;;;;;;;;;;;;;;;5109943;28;1431;-41
2022/12/18 03:54:39;;;;;;;;;;;;;;;;;;5110997;28;1169;-42
2022/12/18 03:57:19;;;;;;;;;;;;;;;;;;5109869;28;1910;-41
2022/12/18 03:59:51;;;;;;;;;;;;;;;;;;5109573;28;1571;-42
2022/12/18 04:02:22;;;;;;;;;;;;;;;;;;5109801;28;1296;-42
2022/12/18 04:04:52;;;;;;;;;;;;;;;;;;5109725;28;1406;-41
2022/12/18 04:07:20;;;;;;;;;;;;;;;;;;5111277;28;1430;-42
2022/12/18 04:09:48;;;;;;;;;;;;;;;;;;5109275;28;1101;-41
2022/12/18 04:12:17;;;;;;;;;;;;;;;;;;5109578;28;1245;-42
2022/12/18 04:14:46;;;;;;;;;;;;;;;;;;5109581;28;1486;-42
2022/12/18 04:17:13;;;;;;;;;;;;;;;;;;5109325;28;1972;-42
2022/12/18 04:19:41;;;;;;;;;;;;;;;;;;5109356;28;1387;-42
2022/12/18 04:22:10;;;;;;;;;;;;;;;;;;5109456;28;1352;-44
2022/12/18 04:24:42;;;;;;;;;;;;;;;;;;5109539;28;1514;-42
2022/12/18 04:27:20;;;;;;;;;;;;;;;;;;5108381;28;1987;-44
2022/12/18 04:29:49;;;;;;;;;;;;;;;;;;5109344;28;1531;-41
2022/12/18 04:32:17;;;;;;;;;;;;;;;;;;5110701;28;1018;-41
2022/12/18 04:34:45;;;;;;;;;;;;;;;;;;5109177;28;1494;-44
2022/12/18 04:37:13;;;;;;;;;;;;;;;;;;5108568;28;1983;-42
2022/12/18 04:39:41;;;;;;;;;;;;;;;;;;5109131;28;1449;-41
2022/12/18 04:42:15;;;;;;;;;;;;;;;;;;5109154;28;1767;-40
2022/12/18 04:44:42;;;;;;;;;;;;;;;;;;5110589;28;1186;-42
2022/12/18 04:47:09;;;;;;;;;;;;;;;;;;5110368;28;979;-41
2022/12/18 04:49:36;;;;;;;;;;;;;;;;;;5110369;28;995;-41
2022/12/18 04:52:03;;;;;;;;;;;;;;;;;;5110496;28;964;-42
2022/12/18 04:54:35;;;;;;;;;;;;;;;;;;5110132;28;1091;-42
2022/12/18 04:57:02;;;;;;;;;;;;;;;;;;5125524;27;1924;-40
2022/12/18 04:59:30;;;;;;;;;;;;;;;;;;5110395;28;1140;-42
2022/12/18 05:01:57;;;;;;;;;;;;;;;;;;5109915;28;1428;-43
2022/12/18 05:04:24;;;;;;;;;;;;;;;;;;5110231;28;1304;-43
2022/12/18 05:06:51;;;;;;;;;;;;;;;;;;5109812;28;1179;-41
2022/12/18 05:09:20;;;;;;;;;;;;;;;;;;5109962;28;966;-42
2022/12/18 05:11:47;;;;;;;;;;;;;;;;;;5109791;28;1215;-41
2022/12/18 05:14:14;;;;;;;;;;;;;;;;;;5110182;28;1388;-42
2022/12/18 05:16:41;;;;;;;;;;;;;;;;;;5109769;28;911;-41
2022/12/18 05:19:08;;;;;;;;;;;;;;;;;;5109445;28;1980;-42
2022/12/18 05:21:35;;;;;;;;;;;;;;;;;;5109906;28;1097;-40
2022/12/18 05:24:02;;;;;;;;;;;;;;;;;;5109998;28;1000;-41
2022/12/18 05:26:29;;;;;;;;;;;;;;;;;;5109713;28;1082;-42
2022/12/18 05:28:56;;;;;;;;;;;;;;;;;;5110032;28;967;-42
2022/12/18 05:31:23;;;;;;;;;;;;;;;;;;5109571;28;1120;-43
2022/12/18 05:33:50;;;;;;;;;;;;;;;;;;5109546;28;1073;-42
2022/12/18 05:36:17;;;;;;;;;;;;;;;;;;5109526;28;1077;-43
2022/12/18 05:38:44;;;;;;;;;;;;;;;;;;5109833;28;1970;-46
2022/12/18 05:41:11;;;;;;;;;;;;;;;;;;5109893;28;920;-42
2022/12/18 05:43:39;;;;;;;;;;;;;;;;;;5109681;28;1093;-45
2022/12/18 05:46:08;;;;;;;;;;;;;;;;;;5109701;28;1196;-42
2022/12/18 05:48:35;;;;;;;;;;;;;;;;;;5109627;28;1073;-42
2022/12/18 05:51:06;;;;;;;;;;;;;;;;;;5108404;28;1231;-40
2022/12/18 05:53:34;;;;;;;;;;;;;;;;;;5109407;28;1161;-41
2022/12/18 05:56:03;;;;;;;;;;;;;;;;;;5110018;28;955;-42
2022/12/18 05:58:30;;;;;;;;;;;;;;;;;;5108467;28;1926;-43
2022/12/18 06:00:58;;;;;;;;;;;;;;;;;;5109648;28;1030;-42
2022/12/18 06:03:25;;;;;;;;;;;;;;;;;;5109605;28;951;-43
2022/12/18 06:05:57;;;;;;;;;;;;;;;;;;5109482;28;1149;-44
2022/12/18 06:08:24;;;;;;;;;;;;;;;;;;5110360;28;1472;-42
2022/12/18 06:10:54;;;;;;;;;;;;;;;;;;5113203;28;914;-42
2022/12/18 06:13:22;;;;;;;;;;;;;;;;;;5111990;28;901;-45
2022/12/18 06:15:49;;;;;;;;;;;;;;;;;;5113078;28;975;-41
2022/12/18 06:18:16;;;;;;;;;;;;;;;;;;5113133;28;1967;-42
2022/12/18 06:20:43;;;;;;;;;;;;;;;;;;5113084;28;1438;-42
2022/12/18 06:23:10;;;;;;;;;;;;;;;;;;5112970;27;1368;-43
2022/12/18 06:25:38;;;;;;;;;;;;;;;;;;5113041;28;917;-42
2022/12/18 06:28:05;;;;;;;;;;;;;;;;;;5113105;28;1106;-42
2022/12/18 06:30:32;;;;;;;;;;;;;;;;;;5112635;28;1268;-40
2022/12/18 06:32:59;;;;;;;;;;;;;;;;;;5113025;28;1252;-43
2022/12/18 06:35:26;;;;;;;;;;;;;;;;;;5112702;28;954;-43
2022/12/18 06:37:53;;;;;;;;;;;;;;;;;;5112870;28;1915;-41
2022/12/18 06:40:20;;;;;;;;;;;;;;;;;;5112848;28;1148;-44
2022/12/18 06:42:47;;;;;;;;;;;;;;;;;;5112732;28;931;-44
2022/12/18 06:45:14;;;;;;;;;;;;;;;;;;5112591;28;1072;-40
2022/12/18 06:47:41;;;;;;;;;;;;;;;;;;5112748;28;1226;-44
2022/12/18 06:50:09;;;;;;;;;;;;;;;;;;5112340;28;1098;-41
2022/12/18 06:52:36;;;;;;;;;;;;;;;;;;5112669;28;1010;-44
2022/12/18 06:55:04;;;;;;;;;;;;;;;;;;5112370;28;936;-42
2022/12/18 06:57:31;;;;;;;;;;;;;;;;;;5112243;28;1902;-42
2022/12/18 06:59:58;;;;;;;;;;;;;;;;;;5112764;28;1135;-40
2022/12/18 07:02:25;;;;;;;;;;;;;;;;;;5112439;28;1136;-41
2022/12/18 07:04:52;;;;;;;;;;;;;;;;;;5104930;28;1220;-44
2022/12/18 07:07:19;;;;;;;;;;;;;;;;;;5092015;28;1095;-41
2022/12/18 07:09:46;;;;;;;;;;;;;;;;;;5091610;28;1228;-41
2022/12/18 07:12:13;;;;;;;;;;;;;;;;;;5090122;28;1687;-42
2022/12/18 07:14:40;;;;;;;;;;;;;;;;;;5091678;28;938;-42
2022/12/18 07:17:07;;;;;;;;;;;;;;;;;;5091372;28;1390;-40
2022/12/18 07:19:35;;;;;;;;;;;;;;;;;;5090728;28;1920;-43
2022/12/18 07:22:02;;;;;;;;;;;;;;;;;;5104361;28;1026;-42
2022/12/18 07:24:29;;;;;;;;;;;;;;;;;;5111268;28;1431;-40
2022/12/18 07:26:56;;;;;;;;;;;;;;;;;;5111935;28;1074;-41
2022/12/18 07:29:23;;;;;;;;;;;;;;;;;;5111132;28;1001;-44
2022/12/18 07:31:50;;;;;;;;;;;;;;;;;;5111782;28;977;-40
2022/12/18 07:34:17;;;;;;;;;;;;;;;;;;5111380;28;1064;-40
2022/12/18 07:36:44;;;;;;;;;;;;;;;;;;5111639;28;1365;-41
2022/12/18 07:39:11;;;;;;;;;;;;;;;;;;5111281;28;1970;-41
2022/12/18 07:41:42;;;;;;;;;;;;;;;;;;5111026;28;1002;-41
2022/12/18 07:44:14;;;;;;;;;;;;;;;;;;5109853;28;1286;-42
2022/12/18 07:46:41;;;;;;;;;;;;;;;;;;5111071;28;1013;-42
2022/12/18 07:49:08;;;;;;;;;;;;;;;;;;5111529;28;1081;-42
2022/12/18 07:51:35;;;;;;;;;;;;;;;;;;5111299;27;1148;-44
2022/12/18 07:54:02;;;;;;;;;;;;;;;;;;5111810;28;925;-42
2022/12/18 07:56:30;;;;;;;;;;;;;;;;;;5111741;28;1206;-43
2022/12/18 07:58:58;;;;;;;;;;;;;;;;;;5110889;28;1914;-41
2022/12/18 08:01:25;;;;;;;;;;;;;;;;;;5111159;28;1461;-42
2022/12/18 08:03:52;;;;;;;;;;;;;;;;;;5110915;28;1160;-41
2022/12/18 08:06:20;;;;;;;;;;;;;;;;;;5110751;28;1334;-42
2022/12/18 08:08:50;;;;;;;;;;;;;;;;;;5110796;28;1071;-42
2022/12/18 08:11:17;;;;;;;;;;;;;;;;;;5111120;28;1309;-42
2022/12/18 08:13:44;;;;;;;;;;;;;;;;;;5111055;28;1081;-41
2022/12/18 08:16:11;;;;;;;;;;;;;;;;;;5110154;28;1074;-41
2022/12/18 08:18:38;;;;;;;;;;;;;;;;;;5110631;28;1922;-41
2022/12/18 08:21:14;;;;;;;;;;;;;;;;;;5110708;28;1193;-41
2022/12/18 08:23:41;;;;;;;;;;;;;;;;;;5110570;28;1149;-45
2022/12/18 08:26:09;;;;;;;;;;;;;;;;;;5110806;28;1091;-44
2022/12/18 08:28:37;;;;;;;;;;;;;;;;;;5110957;28;1366;-42
2022/12/18 08:31:04;;;;;;;;;;;;;;;;;;5108593;28;1048;-42
2022/12/18 08:33:31;;;;;;;;;;;;;;;;;;5110784;28;938;-42
2022/12/18 08:35:59;;;;;;;;;;;;;;;;;;5110553;28;1051;-41
2022/12/18 08:38:26;;;;;;;;;;;;;;;;;;5110109;28;1966;-42
2022/12/18 08:41:00;;;;;;;;;;;;;;;;;;5110424;28;1009;-42
2022/12/18 08:46:16;;;;;;;;;;;;;;;;;;5110346;27;1259;-42
2022/12/18 08:48:43;;;;;;;;;;;;;;;;;;5110134;28;1281;-44
2022/12/18 08:51:10;;;;;;;;;;;;;;;;;;5110427;28;1201;-42
2022/12/18 08:53:38;;;;;;;;;;;;;;;;;;5110064;28;1067;-41
2022/12/18 08:56:05;;;;;;;;;;;;;;;;;;5109980;28;981;-41
2022/12/18 08:58:32;;;;;;;;;;;;;;;;;;5110410;28;1985;-42
2022/12/18 09:01:03;;;;;;;;;;;;;;;;;;5109450;28;1209;-44
2022/12/18 09:03:30;;;;;;;;;;;;;;;;;;5109826;28;868;-42
2022/12/18 09:05:58;;;;;;;;;;;;;;;;;;5109954;28;1361;-42
2022/12/18 09:08:25;;;;;;;;;;;;;;;;;;5110084;28;896;-41
2022/12/18 09:10:52;;;;;;;;;;;;;;;;;;5109861;28;1386;-40
2022/12/18 09:13:19;;;;;;;;;;;;;;;;;;5109933;28;1063;-41
2022/12/18 09:15:54;;;;;;;;;;;;;;;;;;5110172;28;886;-42
2022/12/18 09:18:22;;;;;;;;;;;;;;;;;;5109787;28;1971;-45
2022/12/18 09:20:51;;;;;;;;;;;;;;;;;;5109945;28;1115;-42
2022/12/18 09:23:18;;;;;;;;;;;;;;;;;;5109077;28;1042;-41
2022/12/18 09:25:48;;;;;;;;;;;;;;;;;;5109801;28;1120;-44
2022/12/18 09:28:16;;;;;;;;;;;;;;;;;;5109988;28;1434;-41
2022/12/18 09:30:45;;;;;;;;;;;;;;;;;;5109847;28;1722;-42
2022/12/18 09:33:13;;;;;;;;;;;;;;;;;;5109035;28;1591;-43
2022/12/18 09:35:41;;;;;;;;;;;;;;;;;;5109493;28;1708;-41
2022/12/18 09:38:11;;;;;;;;;;;;;;;;;;5109966;28;2231;-43
2022/12/18 09:41:04;;;;;;;;;;;;;;;;;;5109595;28;1609;-42
2022/12/18 09:43:37;;;;;;;;;;;;;;;;;;5088407;27;1342;-41
2022/12/18 09:46:08;;;;;;;;;;;;;;;;;;5112486;28;1670;-40
2022/12/18 09:48:38;;;;;;;;;;;;;;;;;;5113889;28;1915;-40
2022/12/18 09:51:27;;;;;;;;;;;;;;;;;;5113658;28;1714;-42
2022/12/18 09:53:57;;;;;;;;;;;;;;;;;;5113587;28;1522;-43
2022/12/18 09:56:25;;;;;;;;;;;;;;;;;;5113584;28;1643;-43
2022/12/18 09:58:53;;;;;;;;;;;;;;;;;;5113269;28;1923;-42
2022/12/18 10:01:22;;;;;;;;;;;;;;;;;;5113176;28;2024;-42
2022/12/18 10:03:50;;;;;;;;;;;;;;;;;;5113140;28;1702;-41
2022/12/18 10:06:35;;;;;;;;;;;;;;;;;;5113484;28;1239;-42
2022/12/18 10:09:19;;;;;;;;;;;;;;;;;;5113493;28;1923;-44
2022/12/18 10:11:49;;;;;;;;;;;;;;;;;;5113321;28;1954;-43
2022/12/18 10:14:19;;;;;;;;;;;;;;;;;;5113276;28;1731;-43
2022/12/18 10:17:04;;;;;;;;;;;;;;;;;;5113017;28;1816;-42
2022/12/18 10:19:39;;;;;;;;;;;;;;;;;;5092691;28;1911;-42
2022/12/18 10:22:25;;;;;;;;;;;;;;;;;;5092428;28;1771;-40
2022/12/18 10:25:04;;;;;;;;;;;;;;;;;;5092662;28;2108;-42
2022/12/18 10:27:31;;;;;;;;;;;;;;;;;;5091736;28;2230;-41
2022/12/18 10:29:59;;;;;;;;;;;;;;;;;;5092506;28;1815;-44
2022/12/18 10:32:27;;;;;;;;;;;;;;;;;;5092845;28;1609;-42
2022/12/18 10:34:55;;;;;;;;;;;;;;;;;;5092541;28;1208;-44
2022/12/18 10:37:28;;;;;;;;;;;;;;;;;;5092326;28;2106;-43
2022/12/18 10:40:14;;;;;;;;;;;;;;;;;;5092352;28;1915;-42
2022/12/18 10:43:12;;;;;;;;;;;;;;;;;;5092417;28;1942;-43
2022/12/18 10:45:39;;;;;;;;;;;;;;;;;;5084157;28;1889;-41
2022/12/18 10:48:22;;;;;;;;;;;;;;;;;;5092186;28;1652;-42
2022/12/18 10:50:51;;;;;;;;;;;;;;;;;;5091923;28;1906;-42
2022/12/18 10:53:40;;;;;;;;;;;;;;;;;;5091544;28;1951;-44
2022/12/18 10:56:09;;;;;;;;;;;;;;;;;;5091808;28;1869;-42
2022/12/18 10:58:38;;;;;;;;;;;;;;;;;;5092219;28;1907;-42
2022/12/18 11:01:11;;;;;;;;;;;;;;;;;;5091710;28;1848;-42
2022/12/18 11:03:45;;;;;;;;;;;;;;;;;;5091960;28;1886;-41
2022/12/18 11:06:12;;;;;;;;;;;;;;;;;;5110363;28;1794;-42
2022/12/18 11:08:40;;;;;;;;;;;;;;;;;;5112133;28;1270;-41
2022/12/18 11:11:16;;;;;;;;;;;;;;;;;;5112021;28;1799;-44
2022/12/18 11:13:52;;;;;;;;;;;;;;;;;;5112114;28;1438;-42
2022/12/18 11:16:19;;;;;;;;;;;;;;;;;;5112035;28;1341;-41
2022/12/18 11:18:47;;;;;;;;;;;;;;;;;;5112088;28;1921;-40
2022/12/18 11:21:14;;;;;;;;;;;;;;;;;;5111895;28;1997;-41
2022/12/18 11:23:51;;;;;;;;;;;;;;;;;;5111815;28;1457;-41
2022/12/18 11:26:18;;;;;;;;;;;;;;;;;;5111833;28;1707;-41
2022/12/18 11:28:52;;;;;;;;;;;;;;;;;;5112197;28;2234;-42
2022/12/18 11:31:21;;;;;;;;;;;;;;;;;;5111698;28;1683;-41
2022/12/18 11:34:04;;;;;;;;;;;;;;;;;;5111823;28;1784;-44
2022/12/18 11:36:52;;;;;;;;;;;;;;;;;;5110283;28;1462;-44
2022/12/18 11:39:24;;;;;;;;;;;;;;;;;;5111392;28;1908;-42
2022/12/18 11:42:17;;;;;;;;;;;;;;;;;;5111654;28;1602;-42
2022/12/18 11:44:48;;;;;;;;;;;;;;;;;;5102532;28;1444;-43
2022/12/18 11:47:33;;;;;;;;;;;;;;;;;;5111405;28;1821;-43
2022/12/18 11:50:01;;;;;;;;;;;;;;;;;;5110489;28;1873;-40
2022/12/18 11:52:36;;;;;;;;;;;;;;;;;;5111236;28;1861;-41
2022/12/18 11:55:20;;;;;;;;;;;;;;;;;;5111817;28;1481;-39
2022/12/18 11:57:47;;;;;;;;;;;;;;;;;;5111164;28;1839;-42
2022/12/18 12:00:22;;;;;;;;;;;;;;;;;;5111291;28;1904;-40
2022/12/18 12:03:08;;;;;;;;;;;;;;;;;;5110698;28;1928;-44
2022/12/18 12:05:40;;;;;;;;;;;;;;;;;;5109642;28;1973;-41
2022/12/18 12:08:07;;;;;;;;;;;;;;;;;;5111354;28;1860;-41
2022/12/18 12:10:37;;;;;;;;;;;;;;;;;;5110945;28;1784;-40
2022/12/18 12:13:17;;;;;;;;;;;;;;;;;;5111045;28;1488;-44
2022/12/18 12:16:02;;;;;;;;;;;;;;;;;;5110879;28;1392;-42
2022/12/18 12:18:32;;;;;;;;;;;;;;;;;;5110924;28;1877;-43
2022/12/18 12:21:15;;;;;;;;;;;;;;;;;;5110747;28;1911;-41
2022/12/18 12:23:45;;;;;;;;;;;;;;;;;;5110744;28;1382;-43
2022/12/18 12:26:27;;;;;;;;;;;;;;;;;;5110799;28;1797;-42
2022/12/18 12:28:54;;;;;;;;;;;;;;;;;;5110538;28;1640;-41
2022/12/18 12:31:21;;;;;;;;;;;;;;;;;;5110435;28;2109;-42
2022/12/18 12:33:59;;;;;;;;;;;;;;;;;;5110648;27;1556;-43
2022/12/18 12:36:47;;;;;;;;;;;;;;;;;;5110669;28;1983;-44
2022/12/18 12:39:15;;;;;;;;;;;;;;;;;;5110271;28;2061;-42
2022/12/18 12:44:33;;;;;;;;;;;;;;;;;;5110549;28;1790;-42
2022/12/18 12:47:04;;;;;;;;;;;;;;;;;;5110723;28;2241;-43
2022/12/18 12:49:33;;;;;;;;;;;;;;;;;;5110493;27;1620;-45
2022/12/18 12:52:14;;;;;;;;;;;;;;;;;;5110340;28;1605;-42
2022/12/18 12:54:41;;;;;;;;;;;;;;;;;;5110013;28;2177;-42
2022/12/18 12:57:31;;;;;;;;;;;;;;;;;;5109964;28;2155;-41
2022/12/18 13:00:17;;;;;;;;;;;;;;;;;;5109942;28;1899;-42
2022/12/18 13:02:47;;;;;;;;;;;;;;;;;;5110380;28;1417;-41
2022/12/18 13:05:23;;;;;;;;;;;;;;;;;;5109410;28;1821;-41
2022/12/18 13:07:50;;;;;;;;;;;;;;;;;;5110165;28;1452;-43
2022/12/18 13:10:22;;;;;;;;;;;;;;;;;;5110120;28;1705;-42
2022/12/18 13:13:00;;;;;;;;;;;;;;;;;;5110240;28;2072;-41
2022/12/18 13:15:30;;;;;;;;;;;;;;;;;;5109831;28;1538;-44
2022/12/18 13:18:20;;;;;;;;;;;;;;;;;;5109529;28;1852;-42
2022/12/18 13:20:49;;;;;;;;;;;;;;;;;;5109611;28;1983;-40
2022/12/18 13:23:24;;;;;;;;;;;;;;;;;;5109671;28;1673;-42
2022/12/18 13:25:59;;;;;;;;;;;;;;;;;;5109926;28;1592;-42
2022/12/18 13:28:33;;;;;;;;;;;;;;;;;;5108719;28;1962;-42
2022/12/18 13:31:00;;;;;;;;;;;;;;;;;;5109871;28;1690;-41
2022/12/18 13:33:33;;;;;;;;;;;;;;;;;;5109787;28;2012;-41
2022/12/18 13:36:02;;;;;;;;;;;;;;;;;;5109847;28;1948;-41
2022/12/18 13:38:32;;;;;;;;;;;;;;;;;;5109343;28;1316;-41
2022/12/18 13:41:04;;;;;;;;;;;;;;;;;;5109470;28;1979;-42
2022/12/18 13:43:33;;;;;;;;;;;;;;;;;;5108695;28;1928;-41
2022/12/18 13:46:00;;;;;;;;;;;;;;;;;;5109804;28;1983;-42
2022/12/18 13:48:29;;;;;;;;;;;;;;;;;;5109720;28;1649;-42
2022/12/18 13:51:00;;;;;;;;;;;;;;;;;;5109665;28;1491;-43
2022/12/18 13:53:30;;;;;;;;;;;;;;;;;;5110064;28;2115;-44
2022/12/18 13:55:58;;;;;;;;;;;;;;;;;;5109839;28;1829;-41
2022/12/18 13:58:25;;;;;;;;;;;;;;;;;;5109542;28;1800;-42
2022/12/18 14:00:52;;;;;;;;;;;;;;;;;;5109611;28;1909;-42
2022/12/18 14:03:28;;;;;;;;;;;;;;;;;;5107565;28;1344;-41
2022/12/18 14:05:58;;;;;;;;;;;;;;;;;;5109272;28;2092;-42
2022/12/18 14:08:27;;;;;;;;;;;;;;;;;;5109595;28;1382;-42
2022/12/18 14:10:55;;;;;;;;;;;;;;;;;;5108976;28;1647;-41
2022/12/18 14:13:29;;;;;;;;;;;;;;;;;;5109444;28;1482;-42
2022/12/18 14:15:57;;;;;;;;;;;;;;;;;;5109327;28;1725;-43
2022/12/18 14:18:26;;;;;;;;;;;;;;;;;;5109467;28;1999;-47
2022/12/18 14:20:58;;;;;;;;;;;;;;;;;;5109223;28;1906;-44
2022/12/18 14:23:27;;;;;;;;;;;;;;;;;;5109324;28;1929;-42
2022/12/18 14:25:54;;;;;;;;;;;;;;;;;;5109201;28;2001;-41
2022/12/18 14:28:25;;;;;;;;;;;;;;;;;;5109473;28;1520;-43
2022/12/18 14:30:54;;;;;;;;;;;;;;;;;;5111813;28;2134;-42
2022/12/18 14:33:26;;;;;;;;;;;;;;;;;;5112966;28;1954;-42
2022/12/18 14:36:00;;;;;;;;;;;;;;;;;;5112600;28;1688;-42
2022/12/18 14:38:27;;;;;;;;;;;;;;;;;;5113096;28;1347;-42
2022/12/18 14:40:56;;;;;;;;;;;;;;;;;;5111458;28;1910;-42
2022/12/18 14:43:24;;;;;;;;;;;;;;;;;;5112516;28;1269;-44
2022/12/18 14:45:51;;;;;;;;;;;;;;;;;;5112551;28;1500;-42
2022/12/18 14:48:37;;;;;;;;;;;;;;;;;;5112480;28;1769;-43
2022/12/18 14:51:16;;;;;;;;;;;;;;;;;;5112514;28;1606;-42
2022/12/18 14:53:48;;;;;;;;;;;;;;;;;;5112414;28;1860;-44
2022/12/18 14:56:34;;;;;;;;;;;;;;;;;;5112624;28;1468;-40
2022/12/18 14:59:03;;;;;;;;;;;;;;;;;;5112765;28;1922;-44
2022/12/18 15:01:45;;;;;;;;;;;;;;;;;;5110784;28;1909;-42
2022/12/18 15:04:45;;;;;;;;;;;;;;;;;;5111848;28;1720;-41
2022/12/18 15:07:19;;;;;;;;;;;;;;;;;;5099575;28;1865;-42
2022/12/18 15:10:05;;;;;;;;;;;;;;;;;;5111312;28;1868;-42
2022/12/18 15:12:43;;;;;;;;;;;;;;;;;;5111291;28;1825;-43
2022/12/18 15:15:28;;;;;;;;;;;;;;;;;;5111594;28;1920;-41
2022/12/18 15:17:58;;;;;;;;;;;;;;;;;;5111098;28;1317;-42
2022/12/18 15:20:26;;;;;;;;;;;;;;;;;;5111622;28;2022;-41
2022/12/18 15:22:53;;;;;;;;;;;;;;;;;;5111479;28;1413;-44
2022/12/18 15:25:32;;;;;;;;;;;;;;;;;;5111505;28;1847;-40
2022/12/18 15:27:59;;;;;;;;;;;;;;;;;;5111636;28;1286;-41
2022/12/18 15:30:26;;;;;;;;;;;;;;;;;;5111582;28;2039;-41
2022/12/18 15:33:13;;;;;;;;;;;;;;;;;;5111202;28;1535;-42
2022/12/18 15:35:40;;;;;;;;;;;;;;;;;;5110875;28;2005;-41
2022/12/18 15:38:12;;;;;;;;;;;;;;;;;;5110747;28;1641;-40
2022/12/18 15:40:39;;;;;;;;;;;;;;;;;;5111083;28;1985;-43
2022/12/18 15:45:53;;;;;;;;;;;;;;;;;;5111464;28;1397;-42
2022/12/18 15:48:22;;;;;;;;;;;;;;;;;;5111343;28;2056;-43
2022/12/18 15:50:53;;;;;;;;;;;;;;;;;;5111359;28;1663;-43
2022/12/18 15:53:21;;;;;;;;;;;;;;;;;;5111091;28;1515;-40
2022/12/18 15:58:34;;;;;;;;;;;;;;;;;;5111448;28;1778;-40
2022/12/18 16:01:01;;;;;;;;;;;;;;;;;;5111175;28;1908;-40
2022/12/18 16:03:30;;;;;;;;;;;;;;;;;;5111136;28;1637;-42
2022/12/18 16:06:00;;;;;;;;;;;;;;;;;;5110690;28;2202;-41
2022/12/18 16:08:26;;;;;;;;;;;;;;;;;;5111164;28;1667;-41
2022/12/18 16:10:54;;;;;;;;;;;;;;;;;;5111004;27;1789;-41
2022/12/18 16:13:22;;;;;;;;;;;;;;;;;;5110892;28;1732;-41
2022/12/18 16:15:49;;;;;;;;;;;;;;;;;;5110660;28;1469;-41
2022/12/18 16:18:16;;;;;;;;;;;;;;;;;;5110862;28;1710;-42
2022/12/18 16:20:43;;;;;;;;;;;;;;;;;;5110737;28;2064;-42
2022/12/18 16:23:10;;;;;;;;;;;;;;;;;;5110698;28;1912;-41
2022/12/18 16:25:37;;;;;;;;;;;;;;;;;;5110760;28;1945;-42
2022/12/18 16:28:04;;;;;;;;;;;;;;;;;;5111025;28;1725;-41
2022/12/18 16:30:31;;;;;;;;;;;;;;;;;;5110483;28;1723;-40
2022/12/18 16:33:04;;;;;;;;;;;;;;;;;;5109983;28;1773;-44
2022/12/18 16:35:32;;;;;;;;;;;;;;;;;;5109613;28;1389;-42
2022/12/18 16:37:59;;;;;;;;;;;;;;;;;;5110443;27;1523;-43
2022/12/18 16:40:26;;;;;;;;;;;;;;;;;;5110472;28;1964;-41
2022/12/18 16:42:53;;;;;;;;;;;;;;;;;;5111180;28;1728;-41
2022/12/18 16:45:20;;;;;;;;;;;;;;;;;;5111941;28;1960;-42
2022/12/18 16:47:49;;;;;;;;;;;;;;;;;;5111378;28;2322;-43
2022/12/18 16:50:16;;;;;;;;;;;;;;;;;;5111656;28;1894;-41
2022/12/18 16:52:43;;;;;;;;;;;;;;;;;;5111213;28;1361;-42
2022/12/18 16:55:10;;;;;;;;;;;;;;;;;;5111718;28;1618;-43
2022/12/18 16:57:37;;;;;;;;;;;;;;;;;;5109585;28;1815;-41
2022/12/18 17:00:04;;;;;;;;;;;;;;;;;;5111586;28;1962;-41
2022/12/18 17:02:32;;;;;;;;;;;;;;;;;;5111431;28;2049;-43
2022/12/18 17:04:59;;;;;;;;;;;;;;;;;;5111624;28;2337;-42
2022/12/18 17:07:27;;;;;;;;;;;;;;;;;;5111708;28;1829;-40
2022/12/18 17:09:54;;;;;;;;;;;;;;;;;;5111031;28;1654;-42
2022/12/18 17:12:22;;;;;;;;;;;;;;;;;;5110995;28;2120;-44
2022/12/18 17:14:49;;;;;;;;;;;;;;;;;;5111482;28;1754;-42
2022/12/18 17:17:16;;;;;;;;;;;;;;;;;;5111598;28;1655;-42
2022/12/18 17:19:48;;;;;;;;;;;;;;;;;;5111307;28;1863;-40
2022/12/18 17:22:15;;;;;;;;;;;;;;;;;;5110987;28;1904;-43
2022/12/18 17:24:42;;;;;;;;;;;;;;;;;;5111369;28;1548;-42
2022/12/18 17:27:10;;;;;;;;;;;;;;;;;;5111428;28;1672;-42
2022/12/18 17:29:37;;;;;;;;;;;;;;;;;;5111054;28;1990;-43
2022/12/18 17:32:14;;;;;;;;;;;;;;;;;;5111353;28;1826;-41
2022/12/18 17:34:42;;;;;;;;;;;;;;;;;;5110670;28;1832;-41
2022/12/18 17:37:09;;;;;;;;;;;;;;;;;;5110883;28;1407;-43